Time;durP1;ratioP1;P1;durP2;ratioP2;P2;SDS_P1;SDS_P2;PMS_P1;PMS_P2;Temp;Humidity;BMP_temperature;BMP_pressure;BME280_temperature;BME280_humidity;BME280_pressure;Samples;Min_cycle;Max_cycle;Signal;HPM_P1;HPM_P2
2023/11/30 00:03:07;;;;;;;19.90;11.20;;;;;;;-1.58;82.85;97802.70;226361;1275;22566;-78
2023/11/30 00:08:09;;;;;;;16.40;10.40;;;;;;;-1.51;82.38;97807.40;226340;1275;22604;-79
2023/11/30 00:13:12;;;;;;;19.00;10.80;;;;;;;-1.45;82.73;97800.86;226395;1272;25296;-79
2023/11/30 00:18:14;;;;;;;16.80;11.00;;;;;;;-1.41;82.78;97797.35;226295;1275;22563;-79
2023/11/30 00:23:16;;;;;;;18.90;11.80;;;;;;;-1.39;82.59;97786.88;226368;1275;25971;-79
2023/11/30 00:28:23;;;;;;;19.10;11.40;;;;;;;-1.38;82.33;97785.33;226331;1275;22577;-79
2023/11/30 00:33:26;;;;;;;19.80;12.40;;;;;;;-1.35;82.63;97785.14;226358;1275;22644;-79
2023/11/30 00:38:28;;;;;;;16.80;10.70;;;;;;;-1.33;82.54;97777.15;226329;1273;22550;-80
2023/11/30 00:43:30;;;;;;;17.50;10.70;;;;;;;-1.31;83.06;97783.54;226290;1275;22554;-79
2023/11/30 00:48:32;;;;;;;18.50;11.10;;;;;;;-1.29;82.56;97785.89;226344;1270;23344;-79
2023/11/30 00:53:35;;;;;;;17.90;12.50;;;;;;;-1.28;82.62;97782.17;226341;1275;22872;-80
2023/11/30 00:58:37;;;;;;;18.20;11.80;;;;;;;-1.27;82.58;97783.52;226169;1275;22549;-79
2023/11/30 01:03:39;;;;;;;24.70;13.10;;;;;;;-1.29;82.72;97785.27;226142;1275;22543;-79
2023/11/30 01:08:41;;;;;;;24.30;13.60;;;;;;;-1.31;82.64;97788.30;226311;1275;22602;-80
2023/11/30 01:13:44;;;;;;;26.00;14.00;;;;;;;-1.31;82.55;97787.30;226205;1275;23010;-80
2023/11/30 01:18:47;;;;;;;24.20;14.30;;;;;;;-1.32;82.33;97785.63;226158;1275;22565;-79
2023/11/30 01:23:49;;;;;;;23.00;14.10;;;;;;;-1.30;82.68;97790.69;226304;1272;25492;-79
2023/11/30 01:28:52;;;;;;;24.60;14.70;;;;;;;-1.29;82.56;97789.40;226141;1275;22947;-80
2023/11/30 01:33:54;;;;;;;21.40;12.90;;;;;;;-1.29;82.36;97787.65;226271;1271;22570;-80
2023/11/30 01:38:57;;;;;;;26.20;14.70;;;;;;;-1.30;82.27;97785.48;226292;1275;22528;-80
2023/11/30 01:43:59;;;;;;;23.20;13.40;;;;;;;-1.33;82.55;97786.42;226299;1272;22544;-80
2023/11/30 01:49:02;;;;;;;22.90;13.30;;;;;;;-1.34;82.21;97790.73;226301;1273;22751;-79
2023/11/30 01:54:06;;;;;;;23.60;13.70;;;;;;;-1.35;82.53;97794.77;226275;1275;25335;-79
2023/11/30 01:59:10;;;;;;;24.70;15.00;;;;;;;-1.34;82.59;97790.34;226336;1256;22613;-80
2023/11/30 02:04:17;;;;;;;23.60;14.60;;;;;;;-1.30;82.50;97782.55;226112;1275;22673;-79
2023/11/30 02:09:20;;;;;;;24.60;14.20;;;;;;;-1.27;82.57;97774.90;226322;1273;22559;-80
2023/11/30 02:14:22;;;;;;;24.00;15.60;;;;;;;-1.28;82.72;97774.80;226304;1272;22572;-80
2023/11/30 02:19:24;;;;;;;23.40;15.10;;;;;;;-1.31;82.98;97768.98;226115;1275;22579;-80
2023/11/30 02:24:26;;;;;;;23.50;14.50;;;;;;;-1.37;82.39;97762.29;226288;1272;22547;-79
2023/11/30 02:29:28;;;;;;;26.70;16.00;;;;;;;-1.43;82.77;97768.02;226078;1275;22544;-80
2023/11/30 02:34:32;;;;;;;23.30;15.10;;;;;;;-1.43;82.90;97768.88;226211;1275;23045;-80
2023/11/30 02:39:34;;;;;;;21.90;13.90;;;;;;;-1.40;82.99;97768.26;226319;1275;22573;-79
2023/11/30 02:44:37;;;;;;;25.20;14.80;;;;;;;-1.36;83.36;97765.66;226271;1272;22554;-80
2023/11/30 02:49:39;;;;;;;21.70;12.90;;;;;;;-1.31;82.93;97759.73;226170;1275;23263;-80
2023/11/30 02:54:41;;;;;;;20.90;12.80;;;;;;;-1.24;83.47;97759.08;226283;1275;22567;-80
2023/11/30 02:59:43;;;;;;;18.90;11.80;;;;;;;-1.15;83.41;97760.45;226310;1272;22554;-80
2023/11/30 03:04:46;;;;;;;18.90;12.10;;;;;;;-1.01;83.72;97757.27;226088;1275;22626;-79
2023/11/30 03:09:48;;;;;;;18.60;12.40;;;;;;;-0.89;83.30;97759.06;226304;1269;22564;-79
2023/11/30 03:14:50;;;;;;;20.00;12.60;;;;;;;-0.82;83.17;97759.61;226297;1276;27242;-79
2023/11/30 03:19:52;;;;;;;17.90;12.10;;;;;;;-0.77;83.25;97757.83;226265;1276;22546;-78
2023/11/30 03:24:55;;;;;;;19.20;13.00;;;;;;;-0.76;83.21;97758.20;226280;1273;24263;-79
2023/11/30 03:29:57;;;;;;;20.20;12.90;;;;;;;-0.76;83.39;97752.40;226088;1275;22529;-78
2023/11/30 03:34:59;;;;;;;21.20;14.30;;;;;;;-0.79;83.02;97753.69;226228;1275;22584;-80
2023/11/30 03:40:01;;;;;;;20.70;13.20;;;;;;;-0.84;83.43;97748.56;226296;1272;24251;-78
2023/11/30 03:45:03;;;;;;;20.50;13.30;;;;;;;-0.87;82.93;97753.04;226142;1275;22543;-78
2023/11/30 03:50:06;;;;;;;21.70;13.40;;;;;;;-0.90;83.02;97754.65;226079;1276;22632;-78
2023/11/30 03:55:08;;;;;;;19.40;12.70;;;;;;;-0.89;83.22;97755.70;226339;1275;22656;-79
2023/11/30 04:00:13;;;;;;;18.30;12.00;;;;;;;-0.88;83.37;97748.79;226312;1275;23031;-79
2023/11/30 04:05:15;;;;;;;19.90;11.70;;;;;;;-0.88;83.55;97746.04;226143;1275;22610;-79
2023/11/30 04:10:17;;;;;;;17.60;11.70;;;;;;;-0.92;83.30;97741.21;226333;1272;22702;-78
2023/11/30 04:15:20;;;;;;;24.80;13.40;;;;;;;-0.97;83.19;97742.05;226303;1275;22544;-79
2023/11/30 04:20:22;;;;;;;25.30;15.50;;;;;;;-1.05;83.31;97741.02;226308;1264;22568;-79
2023/11/30 04:25:25;;;;;;;18.90;13.50;;;;;;;-1.13;83.28;97735.89;226196;1275;24815;-78
2023/11/30 04:30:30;;;;;;;18.30;12.60;;;;;;;-1.19;83.50;97734.56;226286;1276;22629;-80
2023/11/30 04:35:33;;;;;;;22.80;13.20;;;;;;;-1.21;83.27;97733.05;226316;1273;22549;-79
2023/11/30 04:40:35;;;;;;;20.90;13.10;;;;;;;-1.20;83.42;97723.73;226317;1275;22534;-79
2023/11/30 04:45:38;;;;;;;21.20;12.90;;;;;;;-1.16;83.43;97716.34;226275;1275;22564;-79
2023/11/30 04:50:40;;;;;;;22.40;14.30;;;;;;;-1.11;83.56;97716.89;226311;1273;22628;-79
2023/11/30 04:55:42;;;;;;;22.90;14.50;;;;;;;-1.06;83.55;97718.98;226163;1275;22547;-79
2023/11/30 05:00:44;;;;;;;23.10;15.10;;;;;;;-0.98;83.52;97716.42;226342;1275;22576;-79
2023/11/30 05:05:46;;;;;;;24.90;15.90;;;;;;;-0.92;83.53;97712.23;226301;1273;24349;-79
2023/11/30 05:10:48;;;;;;;22.80;14.60;;;;;;;-0.87;83.59;97711.56;226270;1276;22567;-80
2023/11/30 05:15:50;;;;;;;21.10;14.10;;;;;;;-0.81;83.82;97708.94;226383;1275;22558;-78
2023/11/30 05:20:53;;;;;;;20.40;14.00;;;;;;;-0.77;83.49;97707.17;226208;1270;22556;-78
2023/11/30 05:25:57;;;;;;;18.60;12.80;;;;;;;-0.74;83.56;97703.02;226213;1275;22558;-77
2023/11/30 05:30:59;;;;;;;20.50;14.00;;;;;;;-0.72;83.42;97705.83;226339;1270;25639;-78
2023/11/30 05:36:02;;;;;;;20.00;14.00;;;;;;;-0.74;83.23;97707.19;226319;1274;22527;-78
2023/11/30 05:41:05;;;;;;;18.50;12.40;;;;;;;-0.77;83.26;97711.63;226297;1275;22702;-77
2023/11/30 05:46:07;;;;;;;21.50;14.50;;;;;;;-0.79;82.89;97711.84;226288;1273;22663;-80
2023/11/30 05:51:10;;;;;;;23.30;15.30;;;;;;;-0.81;83.28;97711.34;226253;1275;23010;-79
2023/11/30 05:56:12;;;;;;;23.50;15.10;;;;;;;-0.81;83.35;97718.40;226210;1275;22907;-77
2023/11/30 06:01:14;;;;;;;21.30;13.70;;;;;;;-0.81;83.16;97719.11;226369;1270;22552;-77
2023/11/30 06:06:16;;;;;;;19.80;13.20;;;;;;;-0.84;82.94;97720.55;226292;1269;22540;-78
2023/11/30 06:11:18;;;;;;;21.00;14.10;;;;;;;-0.87;82.99;97720.00;226289;1274;22577;-77
2023/11/30 06:16:20;;;;;;;21.50;14.20;;;;;;;-0.90;82.87;97732.73;226242;1275;22628;-78
2023/11/30 06:21:22;;;;;;;22.90;15.90;;;;;;;-0.93;83.22;97736.98;226177;1275;22535;-77
2023/11/30 06:26:24;;;;;;;24.10;15.90;;;;;;;-0.93;83.22;97735.64;226425;1273;22721;-76
2023/11/30 06:31:26;;;;;;;24.20;16.10;;;;;;;-0.93;83.01;97738.02;226283;1275;23218;-77
2023/11/30 06:36:29;;;;;;;40.20;28.70;;;;;;;-0.88;83.01;97744.52;226324;1274;22558;-76
2023/11/30 06:41:31;;;;;;;23.90;16.60;;;;;;;-0.82;83.44;97739.64;226367;1275;22592;-77
2023/11/30 06:46:36;;;;;;;26.30;17.60;;;;;;;-0.77;83.29;97741.51;226182;1269;22751;-79
2023/11/30 06:51:38;;;;;;;24.60;16.30;;;;;;;-0.71;83.21;97749.25;226223;1271;22563;-77
2023/11/30 06:56:41;;;;;;;25.10;16.00;;;;;;;-0.64;83.11;97754.06;226138;1271;22569;-80
2023/11/30 07:01:43;;;;;;;21.90;14.50;;;;;;;-0.59;82.80;97755.94;226096;1275;22543;-75
2023/11/30 07:06:45;;;;;;;25.00;17.20;;;;;;;-0.54;83.24;97756.79;226023;1253;22538;-76
2023/11/30 07:11:47;;;;;;;21.70;14.20;;;;;;;-0.48;82.80;97753.34;225857;1256;22553;-79
2023/11/30 07:16:49;;;;;;;21.80;14.00;;;;;;;-0.44;82.71;97752.60;225927;1252;22542;-79
2023/11/30 07:21:53;;;;;;;20.00;13.50;;;;;;;-0.37;82.93;97753.33;225833;1256;22555;-82
2023/11/30 07:26:56;;;;;;;16.60;11.40;;;;;;;-0.27;82.66;97755.38;225953;1254;22574;-78
2023/11/30 07:31:58;;;;;;;18.60;12.40;;;;;;;-0.18;82.56;97755.29;225883;1253;22746;-78
2023/11/30 07:37:01;;;;;;;18.90;12.20;;;;;;;-0.06;82.09;97763.50;225844;1269;25523;-76
2023/11/30 07:42:06;;;;;;;18.40;12.90;;;;;;;0.09;82.24;97760.88;225758;1261;24209;-77
2023/11/30 07:47:10;;;;;;;14.20;9.70;;;;;;;0.41;82.25;97749.79;226730;1260;22546;-76
2023/11/30 07:52:13;;;;;;;15.20;10.10;;;;;;;0.54;81.24;97735.88;225563;1255;22546;-77
2023/11/30 07:57:16;;;;;;;14.70;10.10;;;;;;;0.65;80.91;97738.09;225577;1254;22662;-77
2023/11/30 08:02:18;;;;;;;13.80;10.10;;;;;;;0.80;80.61;97739.83;225797;1260;22542;-77
2023/11/30 08:07:21;;;;;;;14.30;10.20;;;;;;;0.92;80.52;97738.59;225599;1260;22533;-76
2023/11/30 08:12:23;;;;;;;12.30;8.80;;;;;;;0.96;80.07;97739.96;225572;1257;22570;-79
2023/11/30 08:17:25;;;;;;;12.60;9.30;;;;;;;1.07;80.17;97739.41;225846;1254;26307;-77
2023/11/30 08:22:27;;;;;;;13.60;9.90;;;;;;;1.19;80.09;97741.69;225826;1253;22547;-77
2023/11/30 08:27:29;;;;;;;15.50;10.10;;;;;;;1.34;80.02;97743.02;225897;1254;22564;-78
2023/11/30 08:32:32;;;;;;;13.20;9.30;;;;;;;1.94;80.99;97744.48;225808;1269;22604;-76
2023/11/30 08:37:34;;;;;;;13.80;9.60;;;;;;;2.43;79.65;97740.38;226025;1260;22588;-77
2023/11/30 08:42:37;;;;;;;12.90;9.50;;;;;;;2.49;78.49;97748.37;225848;1261;25220;-77
2023/11/30 08:47:39;;;;;;;15.20;10.40;;;;;;;2.71;77.61;97750.02;226046;1251;22550;-77
2023/11/30 08:52:41;;;;;;;14.20;9.90;;;;;;;2.83;77.07;97745.78;225801;1254;22553;-75
2023/11/30 08:57:43;;;;;;;13.90;9.70;;;;;;;2.98;76.25;97748.89;226052;1270;22640;-78
2023/11/30 09:02:46;;;;;;;16.00;10.50;;;;;;;2.92;75.52;97748.68;225893;1251;22535;-79
2023/11/30 09:07:50;;;;;;;17.40;11.30;;;;;;;2.93;75.71;97743.14;225758;1267;23491;-76
2023/11/30 09:12:52;;;;;;;19.10;12.20;;;;;;;3.02;75.23;97741.65;225863;1251;23109;-77
2023/11/30 09:17:56;;;;;;;17.30;11.80;;;;;;;3.08;74.58;97739.65;225981;1253;22633;-74
2023/11/30 09:22:58;;;;;;;18.20;12.00;;;;;;;3.21;74.66;97738.92;225853;1260;22582;-75
2023/11/30 09:28:00;;;;;;;20.80;13.20;;;;;;;3.37;74.24;97741.85;225617;1251;25209;-76
2023/11/30 09:33:04;;;;;;;19.90;11.50;;;;;;;3.57;74.00;97733.76;225607;1253;24415;-76
2023/11/30 09:38:06;;;;;;;21.40;14.10;;;;;;;3.74;73.79;97729.66;225786;1253;23000;-75
2023/11/30 09:43:09;;;;;;;19.40;12.40;;;;;;;3.99;74.14;97715.58;225849;1252;24052;-76
2023/11/30 09:48:11;;;;;;;17.80;11.50;;;;;;;4.08;73.49;97707.78;225995;1253;23001;-76
2023/11/30 09:53:13;;;;;;;16.80;10.70;;;;;;;4.17;72.99;97701.67;225901;1253;22607;-80
2023/11/30 09:58:17;;;;;;;16.30;10.30;;;;;;;4.19;72.40;97694.76;225406;1272;22569;-79
2023/11/30 10:03:31;;;;;;;15.10;9.90;;;;;;;4.15;72.20;97690.39;225483;1269;23147;-75
2023/11/30 10:08:33;;;;;;;17.60;11.50;;;;;;;4.04;71.88;97680.52;225784;1251;22532;-74
2023/11/30 10:13:36;;;;;;;19.40;12.30;;;;;;;3.96;72.33;97664.36;225905;1267;22575;-76
2023/11/30 10:18:38;;;;;;;19.90;12.20;;;;;;;3.79;71.73;97659.42;225708;1260;22534;-75
2023/11/30 10:23:40;;;;;;;22.00;11.80;;;;;;;3.66;72.10;97657.08;225824;1253;22556;-76
2023/11/30 10:28:42;;;;;;;23.60;13.70;;;;;;;3.43;71.53;97649.29;225926;1259;22527;-77
2023/11/30 10:33:53;;;;;;;21.20;12.80;;;;;;;3.28;71.81;97640.55;225843;1268;22535;-75
2023/11/30 10:39:40;;;;;;;21.60;12.80;;;;;;;3.14;71.81;97641.02;225770;1256;24473;-77
2023/11/30 10:44:35;;;;;;;18.50;11.40;;;;;;;3.10;72.03;97637.78;225726;1253;22583;-76
2023/11/30 10:49:41;;;;;;;17.10;11.10;;;;;;;3.10;72.22;97640.41;225743;1269;22546;-77
2023/11/30 10:54:49;;;;;;;17.10;9.60;;;;;;;3.15;72.30;97638.08;225724;1256;25010;-74
2023/11/30 11:00:05;;;;;;;15.30;9.60;;;;;;;3.17;71.97;97634.36;225770;1269;22556;-77
2023/11/30 11:05:09;;;;;;;11.80;8.80;;;;;;;3.11;71.40;97630.34;225755;1273;22526;-77
2023/11/30 11:10:21;;;;;;;15.00;9.40;;;;;;;3.08;71.45;97620.61;225616;1253;22550;-76
2023/11/30 11:15:23;;;;;;;13.80;9.10;;;;;;;3.16;72.02;97616.42;225584;1259;22543;-75
2023/11/30 11:20:27;;;;;;;14.40;8.80;;;;;;;3.24;71.78;97611.41;225602;1266;22568;-76
2023/11/30 11:25:35;;;;;;;10.50;6.50;;;;;;;3.34;72.57;97609.02;225317;1272;178695;-76
2023/11/30 11:30:48;;;;;;;11.60;7.90;;;;;;;3.38;71.55;97605.11;226318;1269;22550;-77
2023/11/30 11:35:53;;;;;;;10.30;7.10;;;;;;;3.37;71.26;97606.41;225540;1269;22548;-77
2023/11/30 11:40:55;;;;;;;9.60;6.70;;;;;;;3.37;71.28;97592.67;225736;1262;22725;-77
2023/11/30 11:45:57;;;;;;;10.00;6.40;;;;;;;3.30;70.38;97596.26;225699;1275;22547;-75
2023/11/30 11:50:59;;;;;;;9.20;6.90;;;;;;;3.23;70.47;97589.65;225883;1272;22648;-73
2023/11/30 11:56:07;;;;;;;9.50;6.60;;;;;;;3.19;70.58;97589.95;225971;1264;22558;-74
2023/11/30 12:01:10;;;;;;;8.50;6.10;;;;;;;3.22;71.26;97580.81;226117;1267;22615;-74
2023/11/30 12:06:12;;;;;;;8.40;6.30;;;;;;;3.30;71.44;97572.27;226891;1264;22537;-74
2023/11/30 12:11:17;;;;;;;8.70;6.10;;;;;;;3.37;71.59;97566.73;225792;1269;22910;-74
2023/11/30 12:16:19;;;;;;;11.40;7.90;;;;;;;3.41;71.22;97565.95;225664;1260;22588;-80
2023/11/30 12:21:29;;;;;;;10.10;6.80;;;;;;;3.22;70.51;97559.89;225910;1269;22562;-77
2023/11/30 12:26:31;;;;;;;9.30;6.60;;;;;;;2.92;70.34;97556.33;225591;1263;22546;-73
2023/11/30 12:31:34;;;;;;;10.60;6.90;;;;;;;2.71;70.31;97554.52;225784;1272;22544;-69
2023/11/30 12:36:36;;;;;;;10.70;6.90;;;;;;;2.62;70.86;97539.83;225870;1262;23496;-73
2023/11/30 12:41:38;;;;;;;11.30;7.60;;;;;;;2.59;70.95;97535.27;225829;1269;22531;-74
2023/11/30 12:46:41;;;;;;;10.60;7.60;;;;;;;2.56;71.10;97526.93;225764;1263;22541;-78
2023/11/30 12:51:43;;;;;;;10.40;7.20;;;;;;;2.59;71.38;97527.28;225965;1260;22573;-71
2023/11/30 12:56:46;;;;;;;10.00;7.20;;;;;;;2.58;71.33;97527.23;226063;1262;22578;-73
2023/11/30 13:01:49;;;;;;;11.40;7.10;;;;;;;2.43;71.08;97530.60;225900;1264;22716;-72
2023/11/30 13:06:53;;;;;;;11.40;7.10;;;;;;;2.26;70.88;97524.81;225755;1262;22540;-72
2023/11/30 13:11:56;;;;;;;10.90;7.50;;;;;;;2.09;71.22;97531.03;225873;1263;23642;-71
2023/11/30 13:16:59;;;;;;;13.00;8.30;;;;;;;1.94;71.43;97524.84;226375;1276;22565;-74
2023/11/30 13:22:02;;;;;;;12.50;7.90;;;;;;;1.82;71.56;97529.30;225647;1269;22587;-74
2023/11/30 13:27:04;;;;;;;11.00;8.00;;;;;;;1.71;71.66;97540.05;225768;1272;22557;-74
2023/11/30 13:32:06;;;;;;;12.30;8.30;;;;;;;1.67;72.17;97542.29;225824;1272;22545;-73
2023/11/30 13:37:09;;;;;;;13.10;8.70;;;;;;;1.67;72.26;97537.79;226022;1260;22561;-71
2023/11/30 13:42:11;;;;;;;15.10;9.40;;;;;;;1.63;72.34;97540.18;226017;1269;22550;-73
2023/11/30 13:47:13;;;;;;;15.90;9.80;;;;;;;1.60;72.52;97533.41;225972;1260;26811;-73
2023/11/30 13:52:15;;;;;;;14.50;9.00;;;;;;;1.62;72.79;97538.88;225797;1269;22523;-72
2023/11/30 13:57:17;;;;;;;14.80;10.10;;;;;;;1.69;72.98;97543.02;225991;1271;22539;-70
2023/11/30 14:02:19;;;;;;;17.10;9.90;;;;;;;1.79;73.18;97546.13;226179;1269;22566;-74
2023/11/30 14:07:21;;;;;;;14.50;9.00;;;;;;;1.89;73.09;97540.70;226190;1262;22546;-72
2023/11/30 14:12:23;;;;;;;16.50;10.00;;;;;;;1.89;72.47;97536.17;226295;1269;22544;-72
2023/11/30 14:17:29;;;;;;;16.70;9.90;;;;;;;1.79;72.22;97523.74;226239;1268;22564;-73
2023/11/30 14:22:36;;;;;;;19.30;11.90;;;;;;;1.69;72.53;97527.91;225832;1253;22544;-76
2023/11/30 14:27:38;;;;;;;15.90;10.50;;;;;;;1.63;72.86;97538.73;226168;1256;23429;-74
2023/11/30 14:32:44;;;;;;;17.90;11.40;;;;;;;1.55;73.30;97538.94;225979;1253;22550;-75
2023/11/30 14:37:46;;;;;;;22.70;13.40;;;;;;;1.46;73.39;97538.73;225992;1253;24736;-74
2023/11/30 14:42:49;;;;;;;25.70;14.80;;;;;;;1.33;73.88;97543.47;226005;1263;22592;-74
2023/11/30 14:47:52;;;;;;;25.30;15.30;;;;;;;1.20;73.87;97553.42;226006;1253;22564;-76
2023/11/30 14:52:54;;;;;;;24.50;15.90;;;;;;;1.05;73.93;97547.15;225826;1268;22573;-74
2023/11/30 14:57:56;;;;;;;28.40;16.30;;;;;;;0.93;74.26;97537.16;225784;1269;22558;-74
2023/11/30 15:03:06;;;;;;;32.70;20.10;;;;;;;0.80;74.34;97538.45;225667;1269;22600;-74
2023/11/30 15:08:13;;;;;;;28.30;16.50;;;;;;;0.66;74.56;97534.17;225831;1269;23027;-74
2023/11/30 15:13:16;;;;;;;29.20;17.30;;;;;;;0.54;74.57;97535.65;225898;1269;24423;-74
2023/11/30 15:18:20;;;;;;;26.80;16.90;;;;;;;0.43;74.93;97540.91;226089;1272;22557;-71
2023/11/30 15:23:22;;;;;;;32.00;17.90;;;;;;;0.35;74.90;97533.94;227014;1273;22839;-72
2023/11/30 15:28:24;;;;;;;29.70;18.40;;;;;;;0.28;75.23;97531.45;226365;1272;22572;-73
2023/11/30 15:33:26;;;;;;;32.70;17.40;;;;;;;0.24;75.23;97541.90;226353;1275;22542;-73
2023/11/30 15:38:32;;;;;;;27.10;17.10;;;;;;;0.23;75.35;97536.48;226539;1275;22551;-72
2023/11/30 15:43:35;;;;;;;28.20;17.60;;;;;;;0.23;75.17;97531.80;226386;1253;22592;-73
2023/11/30 15:48:37;;;;;;;48.10;27.20;;;;;;;0.25;75.49;97540.23;226478;1272;23009;-72
2023/11/30 15:53:39;;;;;;;31.50;19.50;;;;;;;0.26;75.67;97546.89;226312;1275;22544;-74
2023/11/30 15:58:41;;;;;;;32.90;19.50;;;;;;;0.25;75.76;97532.69;226446;1269;22544;-71
2023/11/30 16:03:44;;;;;;;37.60;22.40;;;;;;;0.20;75.47;97523.00;226456;1269;22659;-71
2023/11/30 16:08:46;;;;;;;45.90;24.30;;;;;;;0.16;75.68;97520.73;226346;1274;22833;-74
2023/11/30 16:13:49;;;;;;;39.30;23.80;;;;;;;0.14;75.83;97524.77;226344;1266;22588;-73
2023/11/30 16:18:51;;;;;;;48.00;25.60;;;;;;;0.11;75.72;97522.68;226318;1275;24426;-72
2023/11/30 16:23:55;;;;;;;45.20;27.70;;;;;;;0.08;75.96;97509.26;226507;1272;23515;-71
2023/11/30 16:28:57;;;;;;;49.60;27.60;;;;;;;0.05;76.20;97499.01;226389;1273;22540;-72
2023/11/30 16:33:59;;;;;;;56.90;32.00;;;;;;;0.02;76.20;97473.54;226465;1269;23294;-73
2023/11/30 16:39:03;;;;;;;56.40;31.10;;;;;;;0.00;76.20;97464.88;226242;1275;22527;-73
2023/11/30 16:44:05;;;;;;;65.10;33.90;;;;;;;-0.02;76.38;97485.33;226358;1275;25498;-72
2023/11/30 16:49:09;;;;;;;75.00;40.60;;;;;;;-0.01;76.59;97480.61;226335;1274;22539;-74
2023/11/30 16:54:11;;;;;;;86.80;44.50;;;;;;;-0.03;76.66;97474.77;226182;1275;22545;-75
2023/11/30 16:59:13;;;;;;;102.10;50.20;;;;;;;-0.04;76.79;97475.70;226241;1275;23078;-74
2023/11/30 17:04:18;;;;;;;93.20;47.60;;;;;;;-0.04;76.93;97474.88;226221;1275;22595;-75
2023/11/30 17:09:21;;;;;;;90.70;49.00;;;;;;;-0.06;77.03;97483.11;226567;1273;22561;-73
2023/11/30 17:14:23;;;;;;;88.70;44.60;;;;;;;-0.09;77.12;97471.66;226411;1265;22543;-73
2023/11/30 17:19:25;;;;;;;75.30;41.40;;;;;;;-0.13;76.94;97453.76;226379;1274;22575;-73
2023/11/30 17:24:27;;;;;;;96.20;48.50;;;;;;;-0.17;76.85;97452.95;226364;1273;25498;-73
2023/11/30 17:29:30;;;;;;;81.00;43.10;;;;;;;-0.19;76.92;97463.19;226445;1272;22547;-73
2023/11/30 17:34:32;;;;;;;68.20;37.50;;;;;;;-0.19;77.28;97462.83;226226;1275;22576;-74
2023/11/30 17:39:35;;;;;;;52.70;31.30;;;;;;;-0.19;77.00;97466.49;226458;1272;22549;-72
2023/11/30 17:44:37;;;;;;;44.60;27.50;;;;;;;-0.18;77.26;97460.89;226291;1275;22539;-73
2023/11/30 17:49:39;;;;;;;63.70;33.80;;;;;;;-0.16;77.08;97464.50;226329;1273;27425;-73
2023/11/30 17:54:41;;;;;;;44.30;25.80;;;;;;;-0.14;77.29;97467.42;226307;1275;22572;-74
2023/11/30 17:59:43;;;;;;;55.10;30.90;;;;;;;-0.16;77.13;97466.98;226373;1253;22612;-74
2023/11/30 18:04:45;;;;;;;72.10;37.00;;;;;;;-0.20;76.97;97466.80;226417;1272;23274;-75
2023/11/30 18:09:47;;;;;;;95.10;48.50;;;;;;;-0.26;77.05;97447.65;226407;1272;22597;-73
2023/11/30 18:14:49;;;;;;;81.00;42.70;;;;;;;-0.26;76.94;97446.77;226465;1269;22595;-73
2023/11/30 18:19:51;;;;;;;86.60;45.80;;;;;;;-0.29;77.06;97446.95;226419;1272;22540;-73
2023/11/30 18:24:54;;;;;;;113.50;59.80;;;;;;;-0.35;77.05;97445.98;226410;1275;22560;-73
2023/11/30 18:29:56;;;;;;;102.80;50.80;;;;;;;-0.40;77.46;97427.20;226396;1272;22554;-74
2023/11/30 18:34:58;;;;;;;121.10;60.00;;;;;;;-0.45;77.28;97406.48;226378;1275;22565;-74
2023/11/30 18:40:00;;;;;;;114.90;58.40;;;;;;;-0.51;77.29;97396.23;226145;1275;22557;-73
2023/11/30 18:45:03;;;;;;;113.50;57.20;;;;;;;-0.59;77.39;97405.08;226363;1275;22639;-73
2023/11/30 18:50:06;;;;;;;112.30;56.70;;;;;;;-0.70;77.60;97418.31;226306;1275;22533;-73
2023/11/30 18:55:09;;;;;;;127.90;63.10;;;;;;;-0.86;77.53;97438.61;226430;1275;22547;-75
2023/11/30 19:00:12;;;;;;;134.60;64.10;;;;;;;-0.99;77.64;97446.09;226369;1275;22540;-74
2023/11/30 19:05:14;;;;;;;136.10;67.30;;;;;;;-1.08;78.28;97466.74;226171;1272;25686;-74
2023/11/30 19:10:16;;;;;;;131.60;67.80;;;;;;;-1.10;78.13;97467.16;226222;1275;22630;-75
2023/11/30 19:15:19;;;;;;;136.10;69.50;;;;;;;-1.08;78.81;97467.32;226187;1275;22584;-73
2023/11/30 19:20:22;;;;;;;145.80;73.10;;;;;;;-1.02;78.80;97467.75;226400;1275;22518;-74
2023/11/30 19:25:24;;;;;;;147.40;76.30;;;;;;;-0.94;78.49;97431.80;226226;1259;22555;-75
2023/11/30 19:30:26;;;;;;;191.90;93.70;;;;;;;-0.89;78.92;97409.28;226431;1272;23061;-75
2023/11/30 19:35:32;;;;;;;186.30;92.00;;;;;;;-0.88;78.79;97417.52;226410;1265;22636;-75
2023/11/30 19:40:35;;;;;;;197.70;101.70;;;;;;;-0.88;78.89;97432.71;226423;1275;22596;-75
2023/11/30 19:45:37;;;;;;;181.20;93.40;;;;;;;-0.85;79.18;97409.61;226300;1275;22592;-74
2023/11/30 19:50:39;;;;;;;186.60;96.50;;;;;;;-0.87;79.11;97408.94;226338;1275;22540;-74
2023/11/30 19:55:46;;;;;;;192.00;96.10;;;;;;;-0.91;79.04;97396.58;226341;1275;22568;-74
2023/11/30 20:00:51;;;;;;;244.40;114.80;;;;;;;-1.00;78.87;97390.40;226389;1275;23664;-74
2023/11/30 20:05:53;;;;;;;236.20;109.10;;;;;;;-1.13;78.72;97369.98;226378;1275;22713;-77
2023/11/30 20:10:55;;;;;;;172.10;86.30;;;;;;;-1.22;78.87;97362.11;226373;1273;22896;-74
2023/11/30 20:15:57;;;;;;;134.70;67.80;;;;;;;-1.27;79.44;97394.41;226202;1275;24216;-77
2023/11/30 20:21:00;;;;;;;116.50;63.40;;;;;;;-1.28;79.44;97406.06;226425;1273;23151;-74
2023/11/30 20:26:02;;;;;;;109.00;54.60;;;;;;;-1.26;79.44;97394.73;226355;1273;22547;-73
2023/11/30 20:31:04;;;;;;;100.80;51.40;;;;;;;-1.22;79.57;97400.79;226320;1273;22547;-74
2023/11/30 20:36:07;;;;;;;85.90;46.90;;;;;;;-1.15;79.29;97398.19;226368;1275;22715;-75
2023/11/30 20:41:10;;;;;;;81.30;44.70;;;;;;;-1.06;79.67;97415.11;226194;1275;22571;-75
2023/11/30 20:46:15;;;;;;;92.30;47.30;;;;;;;-0.96;79.82;97409.98;226345;1275;22602;-74
2023/11/30 20:51:20;;;;;;;89.70;46.20;;;;;;;-0.85;79.74;97414.23;226183;1275;22578;-73
2023/11/30 20:56:22;;;;;;;89.60;47.60;;;;;;;-0.76;79.48;97404.75;226589;1275;22852;-75
2023/11/30 21:01:24;;;;;;;93.50;47.90;;;;;;;-0.71;79.64;97404.55;226177;1275;22600;-75
2023/11/30 21:06:27;;;;;;;101.00;52.40;;;;;;;-0.67;79.10;97422.16;226223;1275;22615;-75
2023/11/30 21:11:30;;;;;;;113.60;54.80;;;;;;;-0.62;79.24;97412.50;226295;1275;22552;-74
2023/11/30 21:16:32;;;;;;;110.00;54.80;;;;;;;-0.57;79.36;97399.04;226203;1275;22669;-74
2023/11/30 21:21:34;;;;;;;126.40;61.00;;;;;;;-0.58;79.33;97402.23;226320;1275;23065;-74
2023/11/30 21:26:36;;;;;;;126.90;61.50;;;;;;;-0.58;79.52;97394.13;226216;1275;22569;-74
2023/11/30 21:31:38;;;;;;;116.40;57.80;;;;;;;-0.57;79.60;97401.50;226084;1275;22540;-75
2023/11/30 21:36:42;;;;;;;134.00;63.50;;;;;;;-0.58;79.13;97402.27;226201;1275;22577;-75
2023/11/30 21:41:45;;;;;;;126.10;62.40;;;;;;;-0.55;79.77;97400.36;226236;1275;23651;-76
2023/11/30 21:46:47;;;;;;;118.10;58.90;;;;;;;-0.49;79.87;97410.88;226185;1275;22620;-74
2023/11/30 21:51:49;;;;;;;118.30;59.90;;;;;;;-0.44;80.03;97424.55;226206;1275;22598;-73
2023/11/30 21:56:52;;;;;;;153.20;73.50;;;;;;;-0.40;80.12;97419.06;226335;1275;24340;-75
2023/11/30 22:01:54;;;;;;;165.10;77.30;;;;;;;-0.37;79.78;97415.30;226387;1275;25246;-73
2023/11/30 22:06:59;;;;;;;160.20;77.30;;;;;;;-0.32;79.62;97411.98;226355;1275;22554;-75
2023/11/30 22:12:05;;;;;;;125.30;63.60;;;;;;;-0.30;79.53;97417.09;226320;1273;22555;-74
2023/11/30 22:17:07;;;;;;;202.50;91.20;;;;;;;-0.31;79.42;97422.89;226217;1275;22577;-73
2023/11/30 22:22:09;;;;;;;163.20;77.80;;;;;;;-0.29;80.16;97441.05;226335;1275;22575;-74
2023/11/30 22:27:12;;;;;;;202.20;87.70;;;;;;;-0.30;79.63;97445.08;226347;1275;22542;-75
2023/11/30 22:32:14;;;;;;;195.80;87.50;;;;;;;-0.27;79.77;97439.80;226355;1272;22548;-73
2023/11/30 22:37:19;;;;;;;138.70;66.20;;;;;;;-0.26;79.54;97429.48;226345;1275;25416;-74
2023/11/30 22:42:21;;;;;;;144.80;72.10;;;;;;;-0.29;79.50;97431.36;226129;1275;22623;-75
2023/11/30 22:47:27;;;;;;;178.60;88.10;;;;;;;-0.31;79.77;97424.52;226114;1275;22558;-73
2023/11/30 22:52:29;;;;;;;151.50;74.70;;;;;;;-0.31;79.84;97416.15;226196;1275;22590;-73
2023/11/30 22:57:33;;;;;;;159.10;77.10;;;;;;;-0.28;79.84;97404.46;226310;1275;22576;-75
2023/11/30 23:02:35;;;;;;;164.60;79.90;;;;;;;-0.28;80.00;97410.98;226416;1272;22546;-74